Time;durP1;ratioP1;P1;durP2;ratioP2;P2;SDS_P1;SDS_P2;PMS_P1;PMS_P2;Temp;Humidity;BMP_temperature;BMP_pressure;BME280_temperature;BME280_humidity;BME280_pressure;Samples;Min_cycle;Max_cycle;Signal;HPM_P1;HPM_P2
2021/09/17 00:00:24;;;;;;;5.00;3.50;;;;;;;9.08;52.35;95714.28;4970247;28;20561;-63
2021/09/17 00:02:50;;;;;;;5.90;3.88;;;;;;;8.99;54.54;95720.59;4972895;28;20098;-63
2021/09/17 00:05:15;;;;;;;6.38;3.90;;;;;;;9.01;54.49;95717.78;4973092;28;20079;-63
2021/09/17 00:07:41;;;;;;;5.30;4.10;;;;;;;8.98;55.49;95721.59;4972406;28;20111;-63
2021/09/17 00:10:07;;;;;;;5.43;4.07;;;;;;;9.01;54.95;95721.25;4972123;28;20087;-63
2021/09/17 00:12:33;;;;;;;7.60;4.03;;;;;;;9.11;54.69;95717.59;4972007;28;20141;-63
2021/09/17 00:14:58;;;;;;;5.40;3.90;;;;;;;9.22;54.28;95719.09;4968067;28;20091;-63
2021/09/17 00:17:23;;;;;;;5.20;3.42;;;;;;;9.33;54.39;95721.41;4972949;28;20103;-63
2021/09/17 00:19:49;;;;;;;3.67;2.60;;;;;;;9.43;52.74;95721.22;4972953;28;20224;-63
2021/09/17 00:22:14;;;;;;;3.80;3.10;;;;;;;9.56;52.76;95715.41;4973873;28;20082;-63
2021/09/17 00:24:40;;;;;;;3.20;2.25;;;;;;;9.71;52.73;95712.88;4973452;28;20054;-63
2021/09/17 00:27:06;;;;;;;3.05;2.20;;;;;;;9.79;52.55;95712.84;4978010;28;20076;-63
2021/09/17 00:29:31;;;;;;;3.05;2.50;;;;;;;9.89;51.58;95711.84;4976304;28;20532;-63
2021/09/17 00:31:56;;;;;;;2.60;2.40;;;;;;;9.93;51.44;95708.63;4968021;28;20111;-63
2021/09/17 00:34:24;;;;;;;3.85;3.20;;;;;;;9.87;53.20;95704.03;4975395;28;20071;-63
2021/09/17 00:36:49;;;;;;;4.82;3.28;;;;;;;9.77;53.48;95700.72;4969600;28;20114;-63
2021/09/17 00:39:15;;;;;;;8.30;5.10;;;;;;;9.69;53.79;95701.59;4976979;28;20107;-63
2021/09/17 00:41:41;;;;;;;5.85;3.95;;;;;;;9.62;53.63;95690.78;4977904;28;20071;-63
2021/09/17 00:44:06;;;;;;;3.88;3.22;;;;;;;9.62;52.28;95687.31;4975164;28;20101;-63
2021/09/17 00:46:32;;;;;;;4.22;2.80;;;;;;;9.58;51.15;95692.97;4973802;28;20515;-63
2021/09/17 00:48:57;;;;;;;2.95;2.40;;;;;;;9.49;50.95;95683.38;4975028;28;20103;-63
2021/09/17 00:51:23;;;;;;;4.03;3.10;;;;;;;9.32;52.34;95680.72;4973583;28;20114;-63
2021/09/17 00:53:48;;;;;;;4.82;3.15;;;;;;;9.29;51.61;95681.03;4971728;28;20441;-63
2021/09/17 00:56:14;;;;;;;3.47;3.13;;;;;;;9.24;51.86;95674.59;4971964;28;20109;-63
2021/09/17 00:58:39;;;;;;;3.45;3.15;;;;;;;9.18;51.92;95682.22;4970703;28;20026;-63
2021/09/17 01:01:05;;;;;;;3.72;2.80;;;;;;;9.15;51.45;95681.75;4972855;28;20110;-63
2021/09/17 01:03:30;;;;;;;4.03;2.95;;;;;;;9.10;52.42;95681.41;4974370;28;20111;-63
2021/09/17 01:05:56;;;;;;;3.50;2.90;;;;;;;9.03;52.02;95686.56;4969691;28;20171;-64
2021/09/17 01:08:21;;;;;;;2.97;2.63;;;;;;;8.98;52.06;95679.09;4953538;28;20127;-64
2021/09/17 01:10:47;;;;;;;3.50;2.67;;;;;;;8.92;51.06;95677.91;4965128;28;20079;-64
2021/09/17 01:13:12;;;;;;;4.03;3.08;;;;;;;8.90;51.80;95668.44;4972119;28;20115;-64
2021/09/17 01:15:38;;;;;;;3.85;2.83;;;;;;;8.89;51.73;95667.63;4961983;28;20476;-64
2021/09/17 01:18:03;;;;;;;3.30;3.00;;;;;;;8.90;52.05;95679.03;4993551;28;20544;-63
2021/09/17 01:20:29;;;;;;;3.83;2.90;;;;;;;8.88;51.49;95673.91;4979059;28;20572;-63
2021/09/17 01:22:54;;;;;;;4.75;2.90;;;;;;;8.88;51.33;95671.25;4972414;28;20475;-63
2021/09/17 01:25:20;;;;;;;3.45;2.90;;;;;;;8.89;52.62;95674.75;4972776;28;20428;-63
2021/09/17 01:27:47;;;;;;;3.35;3.05;;;;;;;8.89;51.54;95672.94;4971573;28;20190;-63
2021/09/17 01:30:13;;;;;;;6.60;3.05;;;;;;;8.86;51.21;95661.78;4970903;28;20127;-64
2021/09/17 01:32:41;;;;;;;3.70;2.92;;;;;;;8.86;51.87;95667.94;4970312;28;20218;-64
2021/09/17 01:35:11;;;;;;;4.78;2.90;;;;;;;8.86;51.73;95659.97;4974826;28;20103;-64
2021/09/17 01:37:36;;;;;;;3.65;3.22;;;;;;;8.84;51.81;95655.84;4972742;28;20701;-63
2021/09/17 01:40:03;;;;;;;4.75;3.03;;;;;;;8.82;52.10;95656.84;4968806;28;20111;-63
2021/09/17 01:42:29;;;;;;;3.50;3.08;;;;;;;8.78;53.22;95657.31;4977230;28;20090;-63
2021/09/17 01:44:54;;;;;;;6.47;3.53;;;;;;;8.74;52.97;95654.16;4972238;28;20761;-63
2021/09/17 01:47:19;;;;;;;4.85;3.70;;;;;;;8.75;52.46;95655.00;4971158;28;20476;-63
2021/09/17 01:49:45;;;;;;;4.22;3.60;;;;;;;8.62;51.98;95650.16;4971386;28;20034;-63
2021/09/17 01:52:10;;;;;;;6.63;3.72;;;;;;;8.51;53.02;95646.03;4971086;28;20038;-63
2021/09/17 01:54:36;;;;;;;6.05;4.10;;;;;;;8.47;55.67;95645.50;4971462;28;20038;-63
2021/09/17 01:57:03;;;;;;;7.18;4.88;;;;;;;8.36;56.89;95645.84;4965827;28;20669;-63
2021/09/17 01:59:28;;;;;;;7.50;5.32;;;;;;;8.18;55.29;95644.13;4970817;28;20464;-63
2021/09/17 02:01:54;;;;;;;7.47;5.38;;;;;;;8.12;59.81;95644.78;4969909;28;20031;-62
2021/09/17 02:04:19;;;;;;;9.90;7.85;;;;;;;8.04;56.19;95641.13;4970658;28;20043;-63
2021/09/17 02:06:44;;;;;;;10.07;7.90;;;;;;;8.24;59.56;95643.50;4970906;28;20050;-63
2021/09/17 02:09:10;;;;;;;14.23;8.45;;;;;;;8.48;59.80;95643.69;4972242;28;20100;-63
2021/09/17 02:11:35;;;;;;;12.82;9.07;;;;;;;8.71;59.06;95643.91;4975292;28;20054;-63
2021/09/17 02:14:01;;;;;;;9.18;6.45;;;;;;;8.86;58.21;95638.75;4976420;28;20062;-63
2021/09/17 02:16:30;;;;;;;5.78;4.22;;;;;;;8.93;57.05;95644.22;4965506;28;20038;-63
2021/09/17 02:18:56;;;;;;;5.68;3.95;;;;;;;8.95;55.29;95640.41;4974272;28;20080;-64
2021/09/17 02:21:22;;;;;;;4.53;3.50;;;;;;;8.97;54.38;95634.13;4977000;28;20043;-64
2021/09/17 02:23:48;;;;;;;5.53;3.38;;;;;;;8.95;54.15;95639.59;4976652;28;20055;-64
2021/09/17 02:26:13;;;;;;;4.18;3.20;;;;;;;8.93;53.09;95637.09;4976555;28;20041;-64
2021/09/17 02:28:39;;;;;;;3.72;3.10;;;;;;;8.86;54.25;95637.91;4973299;28;20047;-64
2021/09/17 02:31:05;;;;;;;4.22;3.42;;;;;;;8.75;53.30;95633.75;4970610;28;20322;-63
2021/09/17 02:33:31;;;;;;;3.50;3.20;;;;;;;8.67;54.20;95632.75;4971016;28;20887;-63
2021/09/17 02:35:57;;;;;;;3.90;3.22;;;;;;;8.63;51.84;95625.28;4969169;28;20123;-63
2021/09/17 02:38:22;;;;;;;3.53;3.20;;;;;;;8.60;51.95;95623.00;4970774;28;20038;-63
2021/09/17 02:40:48;;;;;;;3.30;3.00;;;;;;;8.56;51.67;95631.28;4970494;28;20039;-63
2021/09/17 02:43:14;;;;;;;4.65;3.10;;;;;;;8.54;52.80;95629.78;4970391;28;20038;-63
2021/09/17 02:45:39;;;;;;;4.85;3.28;;;;;;;8.52;52.18;95618.50;4964769;28;20042;-63
2021/09/17 02:48:05;;;;;;;3.70;3.08;;;;;;;8.52;52.03;95621.97;4972032;28;20058;-63
2021/09/17 02:50:30;;;;;;;3.67;3.20;;;;;;;8.50;53.05;95618.66;4973131;28;20076;-63
2021/09/17 02:52:56;;;;;;;6.63;3.70;;;;;;;8.48;52.48;95620.66;4971014;28;20101;-63
2021/09/17 02:55:21;;;;;;;6.72;4.25;;;;;;;8.44;53.78;95614.84;4971357;28;20069;-63
2021/09/17 02:57:47;;;;;;;6.07;5.18;;;;;;;8.38;54.50;95617.31;4975018;28;20033;-63
2021/09/17 03:00:12;;;;;;;16.77;6.43;;;;;;;8.35;53.67;95615.81;4976140;28;20043;-63
2021/09/17 03:02:38;;;;;;;46.67;6.57;;;;;;;8.20;57.58;95620.97;4973698;28;20072;-63
2021/09/17 03:05:04;;;;;;;7.45;5.72;;;;;;;8.23;57.69;95615.31;4974947;28;20046;-63
2021/09/17 03:07:29;;;;;;;8.15;5.43;;;;;;;8.36;55.94;95612.19;4975675;28;20131;-63
2021/09/17 03:09:54;;;;;;;9.40;5.15;;;;;;;8.52;54.41;95613.19;4976716;28;20035;-63
2021/09/17 03:12:20;;;;;;;8.32;5.40;;;;;;;8.59;54.25;95608.88;4975683;28;20042;-63
2021/09/17 03:14:45;;;;;;;8.48;4.95;;;;;;;8.64;54.97;95609.19;4973842;28;20043;-63
2021/09/17 03:17:11;;;;;;;7.32;5.50;;;;;;;8.76;53.74;95604.41;4993408;28;20488;-63
2021/09/17 03:19:37;;;;;;;7.32;4.30;;;;;;;8.87;52.92;95605.06;4993704;28;20038;-63
2021/09/17 03:22:02;;;;;;;5.22;3.72;;;;;;;8.93;53.58;95599.06;4995261;28;20085;-63
2021/09/17 03:24:28;;;;;;;5.35;3.75;;;;;;;8.99;51.52;95601.09;4997460;28;20102;-63
2021/09/17 03:26:53;;;;;;;6.60;4.20;;;;;;;9.03;52.29;95599.75;4996441;28;20149;-63
2021/09/17 03:29:19;;;;;;;6.80;3.80;;;;;;;9.15;51.93;95602.06;4996840;28;20086;-63
2021/09/17 03:31:44;;;;;;;7.75;4.90;;;;;;;9.17;50.45;95600.06;4992179;28;20631;-63
2021/09/17 03:34:10;;;;;;;5.07;4.00;;;;;;;9.22;52.29;95608.34;4986732;28;20026;-63
2021/09/17 03:36:42;;;;;;;5.90;3.83;;;;;;;9.29;51.86;95597.88;4981959;28;20690;-63
2021/09/17 03:39:07;;;;;;;4.60;3.67;;;;;;;9.32;52.27;95595.69;4993567;28;20111;-63
2021/09/17 03:41:33;;;;;;;6.95;4.28;;;;;;;9.36;51.91;95598.00;4998081;28;20106;-63
2021/09/17 03:43:58;;;;;;;7.18;5.22;;;;;;;9.38;51.17;95596.03;4988813;28;20134;-63
2021/09/17 03:46:24;;;;;;;7.82;5.10;;;;;;;9.40;51.77;95599.31;4979057;28;20592;-63
2021/09/17 03:48:49;;;;;;;7.68;4.90;;;;;;;9.42;51.28;95592.84;4979647;28;20595;-63
2021/09/17 03:51:14;;;;;;;8.40;5.50;;;;;;;9.43;52.01;95591.03;4978932;28;20138;-63
2021/09/17 03:53:40;;;;;;;8.55;5.65;;;;;;;9.49;51.92;95592.16;4978985;28;20087;-63
2021/09/17 03:56:05;;;;;;;9.85;5.78;;;;;;;9.49;52.04;95600.97;4978244;28;20111;-63
2021/09/17 03:58:31;;;;;;;8.50;6.60;;;;;;;9.52;51.64;95595.28;4967690;28;20528;-63
2021/09/17 04:00:56;;;;;;;9.25;6.55;;;;;;;9.55;51.71;95596.78;4977579;28;20103;-63
2021/09/17 04:03:21;;;;;;;8.10;6.13;;;;;;;9.57;51.40;95595.63;4977537;28;20107;-63
2021/09/17 04:05:47;;;;;;;9.85;6.95;;;;;;;9.61;51.14;95600.56;4978727;28;20105;-63
2021/09/17 04:08:12;;;;;;;8.18;6.05;;;;;;;9.62;51.53;95595.09;4974700;28;20450;-63
2021/09/17 04:10:38;;;;;;;12.05;5.63;;;;;;;9.68;51.84;95599.72;4974928;28;20042;-63
2021/09/17 04:13:03;;;;;;;7.63;5.78;;;;;;;9.70;52.49;95595.06;4975612;28;20539;-63
2021/09/17 04:15:30;;;;;;;9.60;5.32;;;;;;;9.82;52.07;95598.16;4964218;28;20110;-63
2021/09/17 04:17:55;;;;;;;6.25;4.97;;;;;;;9.84;51.45;95585.53;4975496;28;20115;-63
2021/09/17 04:20:21;;;;;;;8.88;6.55;;;;;;;9.88;51.61;95588.66;4975571;28;20464;-63
2021/09/17 04:22:46;;;;;;;8.95;5.88;;;;;;;9.89;51.92;95592.16;4973168;28;20050;-63
2021/09/17 04:25:12;;;;;;;12.50;9.07;;;;;;;9.96;51.47;95591.28;4976925;28;20083;-63
2021/09/17 04:27:37;;;;;;;11.10;8.43;;;;;;;9.98;51.34;95588.44;4977152;28;20167;-63
2021/09/17 04:30:04;;;;;;;9.98;6.68;;;;;;;9.97;53.65;95589.47;4957939;28;20079;-63
2021/09/17 04:32:30;;;;;;;10.60;8.18;;;;;;;9.97;54.10;95592.94;4971920;28;20183;-63
2021/09/17 04:34:56;;;;;;;8.15;6.38;;;;;;;10.08;52.73;95591.75;4974834;28;20138;-63
2021/09/17 04:37:21;;;;;;;8.38;5.75;;;;;;;10.10;52.54;95584.41;4975890;28;20111;-63
2021/09/17 04:39:47;;;;;;;6.95;5.05;;;;;;;10.14;51.68;95590.22;4967762;28;20102;-63
2021/09/17 04:42:12;;;;;;;7.32;5.30;;;;;;;10.18;51.06;95588.03;4976507;28;20109;-63
2021/09/17 04:44:38;;;;;;;10.23;6.75;;;;;;;10.08;52.11;95589.09;4975703;28;20114;-63
2021/09/17 04:47:04;;;;;;;7.55;5.28;;;;;;;10.06;51.49;95593.75;4975369;28;20107;-63
2021/09/17 04:49:29;;;;;;;6.88;4.85;;;;;;;10.05;51.20;95594.75;4975440;28;20174;-63
2021/09/17 04:51:55;;;;;;;9.25;5.28;;;;;;;10.06;50.63;95596.41;4975271;28;20138;-63
2021/09/17 04:54:20;;;;;;;7.15;5.25;;;;;;;10.06;50.68;95587.59;4976429;28;20083;-63
2021/09/17 04:56:45;;;;;;;6.95;5.32;;;;;;;10.02;50.54;95586.25;4975697;28;20158;-63
2021/09/17 04:59:11;;;;;;;8.27;5.30;;;;;;;10.05;51.03;95592.09;4975521;28;20166;-64
2021/09/17 05:01:37;;;;;;;7.25;4.57;;;;;;;10.07;51.08;95591.94;4974039;28;20090;-64
2021/09/17 05:04:02;;;;;;;6.93;4.85;;;;;;;10.08;50.29;95586.44;4972284;28;20193;-64
2021/09/17 05:06:30;;;;;;;10.45;5.82;;;;;;;10.05;51.64;95593.88;4961967;28;20114;-64
2021/09/17 05:08:57;;;;;;;7.47;5.25;;;;;;;9.90;53.34;95596.47;4973040;28;20111;-64
2021/09/17 05:11:22;;;;;;;8.45;6.43;;;;;;;9.72;54.97;95595.72;4975213;28;20106;-64
2021/09/17 05:13:48;;;;;;;7.03;4.95;;;;;;;9.64;55.39;95594.91;4976368;28;20123;-64
2021/09/17 05:16:13;;;;;;;7.85;5.78;;;;;;;9.74;53.36;95594.72;4966943;28;20151;-64
2021/09/17 05:18:39;;;;;;;6.55;5.50;;;;;;;9.70;53.11;95584.41;4976642;28;20038;-64
2021/09/17 05:21:04;;;;;;;15.40;11.68;;;;;;;9.18;57.52;95586.59;4973902;28;20163;-64
2021/09/17 05:23:30;;;;;;;16.58;10.15;;;;;;;9.30;56.95;95588.91;4969882;28;20047;-64
2021/09/17 05:25:55;;;;;;;11.32;8.77;;;;;;;9.08;58.23;95584.13;4964627;28;20165;-64
2021/09/17 05:28:21;;;;;;;13.88;12.10;;;;;;;8.89;58.91;95590.63;4972944;28;20107;-64
2021/09/17 05:30:46;;;;;;;14.43;10.65;;;;;;;9.00;58.27;95588.63;4973279;28;20046;-65
2021/09/17 05:33:11;;;;;;;13.70;10.40;;;;;;;9.13;58.02;95583.63;4973708;28;20085;-64
2021/09/17 05:35:37;;;;;;;13.27;10.48;;;;;;;9.25;58.11;95591.25;4973094;28;20182;-64
2021/09/17 05:38:02;;;;;;;13.65;11.05;;;;;;;9.44;58.11;95587.34;4971889;28;20509;-64
2021/09/17 05:40:28;;;;;;;15.30;11.50;;;;;;;9.53;58.14;95589.00;4962215;28;20035;-64
2021/09/17 05:42:53;;;;;;;14.50;10.50;;;;;;;9.57;58.11;95598.28;4973381;28;20031;-64
2021/09/17 05:45:19;;;;;;;15.32;11.90;;;;;;;9.57;58.75;95592.13;4972612;28;20544;-64
2021/09/17 05:47:44;;;;;;;15.05;10.75;;;;;;;9.73;58.38;95591.25;4974543;28;20103;-64
2021/09/17 05:50:11;;;;;;;18.60;13.20;;;;;;;9.71;59.42;95601.22;4976626;28;20030;-64
2021/09/17 05:52:36;;;;;;;15.63;10.55;;;;;;;9.98;56.96;95591.09;4973325;28;20134;-64
2021/09/17 05:55:03;;;;;;;17.50;12.65;;;;;;;10.10;57.40;95596.91;4966861;28;20112;-64
2021/09/17 05:57:29;;;;;;;16.10;11.48;;;;;;;10.25;57.16;95606.78;4967929;28;20099;-64
2021/09/17 05:59:54;;;;;;;20.58;13.98;;;;;;;10.31;57.43;95603.41;4960970;28;20206;-64
2021/09/17 06:02:20;;;;;;;18.00;14.13;;;;;;;10.29;58.10;95598.28;4963880;28;20106;-64
2021/09/17 06:04:45;;;;;;;19.15;14.55;;;;;;;10.35;58.54;95605.56;4968829;28;20107;-64
2021/09/17 06:07:11;;;;;;;25.15;16.65;;;;;;;10.42;58.56;95607.50;4965880;28;20263;-65
2021/09/17 06:09:36;;;;;;;24.33;16.35;;;;;;;10.35;59.07;95605.56;4969520;28;20079;-65
2021/09/17 06:12:03;;;;;;;24.08;17.70;;;;;;;10.41;59.11;95606.69;4974002;28;20106;-65
2021/09/17 06:14:28;;;;;;;23.83;17.90;;;;;;;10.55;58.89;95606.91;4971663;28;20119;-65
2021/09/17 06:16:54;;;;;;;23.23;16.85;;;;;;;10.53;59.20;95609.75;4970020;28;20446;-64
2021/09/17 06:19:19;;;;;;;34.03;17.60;;;;;;;10.57;59.06;95612.91;4966014;28;20395;-64
2021/09/17 06:21:45;;;;;;;31.13;17.95;;;;;;;10.50;59.38;95612.75;4968547;28;20042;-64
2021/09/17 06:24:10;;;;;;;30.50;18.10;;;;;;;10.41;59.99;95616.50;4969375;28;20372;-64
2021/09/17 06:26:35;;;;;;;22.90;17.67;;;;;;;10.50;59.78;95615.41;4969574;28;20031;-64
2021/09/17 06:29:03;;;;;;;30.88;16.58;;;;;;;10.49;59.95;95624.41;4968329;28;20039;-64
2021/09/17 06:31:28;;;;;;;45.25;17.10;;;;;;;10.39;60.49;95614.00;4956867;28;20571;-64
2021/09/17 06:33:54;;;;;;;43.72;17.60;;;;;;;10.45;60.33;95612.47;4967872;28;20039;-64
2021/09/17 06:36:19;;;;;;;38.72;18.55;;;;;;;10.54;60.28;95615.91;4959728;28;20531;-64
2021/09/17 06:38:45;;;;;;;41.40;18.02;;;;;;;10.57;60.10;95619.03;4960783;28;20035;-65
2021/09/17 06:41:10;;;;;;;43.30;19.17;;;;;;;10.59;60.30;95617.03;4969865;28;20103;-64
2021/09/17 06:43:36;;;;;;;26.23;17.48;;;;;;;10.52;60.59;95616.09;4969923;28;20104;-65
2021/09/17 06:46:02;;;;;;;34.47;18.17;;;;;;;10.62;60.39;95629.16;4961225;28;20038;-64
2021/09/17 06:48:27;;;;;;;39.30;18.67;;;;;;;10.64;60.38;95613.81;4972507;28;20037;-64
2021/09/17 06:50:53;;;;;;;43.22;17.50;;;;;;;10.65;60.49;95615.50;4970792;28;20031;-64
2021/09/17 06:53:18;;;;;;;42.08;19.67;;;;;;;10.68;60.43;95616.97;4970918;28;20034;-65
2021/09/17 06:55:44;;;;;;;32.38;19.38;;;;;;;10.69;60.21;95614.13;4975471;28;20027;-64
2021/09/17 06:58:09;;;;;;;35.92;20.25;;;;;;;10.71;60.39;95605.97;4973143;28;20351;-64
2021/09/17 07:00:36;;;;;;;31.75;22.50;;;;;;;10.61;60.90;95612.34;4988774;28;20062;-64
2021/09/17 07:03:01;;;;;;;36.90;21.83;;;;;;;10.77;60.32;95609.75;4992948;28;20663;-65
2021/09/17 07:05:28;;;;;;;33.50;22.58;;;;;;;10.73;60.60;95614.59;4993571;28;20038;-64
2021/09/17 07:08:04;;;;;;;32.30;23.90;;;;;;;10.99;60.13;95603.53;4996471;28;20078;-64
2021/09/17 07:10:30;;;;;;;32.35;23.98;;;;;;;11.08;59.95;95612.28;4998624;28;20403;-64
2021/09/17 07:12:55;;;;;;;30.85;23.92;;;;;;;11.09;59.82;95603.28;4993243;28;20058;-65
2021/09/17 07:15:21;;;;;;;32.60;23.58;;;;;;;11.17;59.37;95602.41;4993811;28;20096;-65
2021/09/17 07:17:46;;;;;;;32.42;24.05;;;;;;;10.78;60.34;95609.53;4992613;28;20472;-66
2021/09/17 07:20:12;;;;;;;35.65;26.23;;;;;;;10.73;60.56;95601.28;4993632;28;20153;-65
2021/09/17 07:22:37;;;;;;;35.88;25.75;;;;;;;10.64;61.02;95605.00;4993408;28;20026;-65
2021/09/17 07:25:04;;;;;;;30.30;23.42;;;;;;;10.64;61.28;95600.50;4985409;28;20035;-65
2021/09/17 07:27:30;;;;;;;31.60;24.25;;;;;;;10.84;60.96;95608.00;4973680;28;20039;-66
2021/09/17 07:29:56;;;;;;;30.38;23.33;;;;;;;10.88;60.87;95602.13;4996117;28;20569;-77
2021/09/17 07:32:21;;;;;;;34.42;24.50;;;;;;;11.09;60.03;95599.81;4961680;28;20107;-77
2021/09/17 07:34:47;;;;;;;33.97;24.83;;;;;;;11.04;59.84;95605.66;4994421;28;20893;-79
2021/09/17 07:37:12;;;;;;;34.47;26.17;;;;;;;11.22;59.61;95601.88;4995209;28;20142;-78
2021/09/17 07:39:37;;;;;;;38.08;27.63;;;;;;;11.37;59.34;95600.03;4970120;28;20595;-79
2021/09/17 07:42:03;;;;;;;36.03;27.88;;;;;;;11.53;58.81;95606.19;4963639;28;20157;-79
2021/09/17 07:44:30;;;;;;;40.17;27.63;;;;;;;11.52;58.76;95610.69;4961560;28;20160;-77
2021/09/17 07:46:56;;;;;;;37.05;26.98;;;;;;;11.40;58.81;95604.16;4962181;28;20090;-79
2021/09/17 07:49:22;;;;;;;41.33;27.83;;;;;;;11.61;58.99;95608.75;4995359;28;20079;-79
2021/09/17 07:51:47;;;;;;;38.67;28.00;;;;;;;11.64;58.41;95603.06;4978805;28;20106;-79
2021/09/17 07:54:13;;;;;;;35.85;26.67;;;;;;;11.75;57.73;95599.09;4978922;28;20090;-78
2021/09/17 07:56:38;;;;;;;37.40;29.25;;;;;;;11.94;58.20;95596.03;4974437;28;20111;-78
2021/09/17 07:59:04;;;;;;;36.88;27.35;;;;;;;12.17;56.57;95597.75;4993965;28;20095;-79
2021/09/17 08:01:29;;;;;;;38.05;28.08;;;;;;;12.14;57.14;95604.28;4977875;28;20188;-78
2021/09/17 08:03:55;;;;;;;38.75;28.45;;;;;;;12.33;56.94;95605.50;4960729;28;20522;-78
2021/09/17 08:06:20;;;;;;;35.75;27.90;;;;;;;12.31;57.57;95604.91;4977028;28;20110;-78
2021/09/17 08:08:46;;;;;;;33.33;26.70;;;;;;;12.59;56.16;95604.13;4964232;28;20099;-80
2021/09/17 08:11:11;;;;;;;39.10;27.90;;;;;;;12.57;55.85;95608.03;4961558;28;20090;-79
2021/09/17 08:13:37;;;;;;;31.15;24.27;;;;;;;12.44;55.76;95617.53;4974022;28;20131;-78
2021/09/17 08:16:03;;;;;;;37.72;27.00;;;;;;;12.67;55.46;95612.00;4976840;28;20184;-78
2021/09/17 08:18:28;;;;;;;29.17;23.45;;;;;;;12.65;56.09;95616.69;4963443;28;20042;-77
2021/09/17 08:20:57;;;;;;;31.95;22.38;;;;;;;12.41;55.79;95615.25;4997009;28;20107;-78
2021/09/17 08:23:23;;;;;;;34.60;24.10;;;;;;;12.65;53.83;95610.56;4977984;28;20165;-78
2021/09/17 08:25:51;;;;;;;33.17;24.83;;;;;;;12.89;54.54;95614.66;4977738;28;20713;-79
2021/09/17 08:28:18;;;;;;;29.35;21.20;;;;;;;12.75;55.16;95611.03;4977758;28;20114;-78
2021/09/17 08:30:43;;;;;;;28.60;21.52;;;;;;;12.61;55.62;95625.31;4977377;28;20086;-78
2021/09/17 08:33:09;;;;;;;30.10;20.92;;;;;;;12.59;54.62;95619.31;4993056;28;20451;-78
2021/09/17 08:35:34;;;;;;;28.98;19.30;;;;;;;12.29;55.33;95614.91;4990125;28;20105;-63
2021/09/17 08:38:00;;;;;;;27.60;20.40;;;;;;;12.76;54.37;95627.91;4991371;28;20255;-62
2021/09/17 08:40:28;;;;;;;29.13;20.40;;;;;;;13.15;53.22;95620.41;4990717;28;20034;-63
2021/09/17 08:42:54;;;;;;;37.20;22.58;;;;;;;12.95;54.37;95622.94;4985082;28;20062;-63
2021/09/17 08:45:19;;;;;;;32.22;20.77;;;;;;;12.69;54.17;95625.19;4991157;28;20121;-61
2021/09/17 08:47:48;;;;;;;32.22;23.27;;;;;;;13.20;53.22;95623.38;4990469;28;20131;-63
2021/09/17 08:50:14;;;;;;;32.03;22.38;;;;;;;13.82;51.27;95620.00;4990520;28;20034;-62
2021/09/17 08:52:39;;;;;;;29.23;21.98;;;;;;;13.79;51.86;95617.72;4988668;28;20495;-63
2021/09/17 08:55:05;;;;;;;32.65;23.60;;;;;;;13.92;51.44;95604.44;4990719;28;20046;-62
2021/09/17 08:57:31;;;;;;;36.55;23.65;;;;;;;14.30;49.24;95619.19;4989858;28;20117;-64
2021/09/17 08:59:56;;;;;;;31.10;21.58;;;;;;;13.41;52.24;95614.47;4990483;28;20089;-64
2021/09/17 09:02:31;;;;;;;33.90;22.35;;;;;;;13.85;50.72;95621.47;4991197;28;20034;-64
2021/09/17 09:05:04;;;;;;;38.97;22.33;;;;;;;13.72;50.98;95623.06;4990317;28;20081;-62
2021/09/17 09:07:35;;;;;;;29.58;21.17;;;;;;;13.39;52.62;95619.16;4990421;28;20046;-64
2021/09/17 09:10:14;;;;;;;30.05;19.75;;;;;;;13.66;50.93;95626.50;4990745;28;20039;-63
2021/09/17 09:12:47;;;;;;;28.55;19.98;;;;;;;14.02;50.66;95619.31;4988032;28;20042;-64
2021/09/17 09:15:16;;;;;;;27.27;18.65;;;;;;;14.45;49.25;95610.97;4972523;28;20109;-64
2021/09/17 09:17:43;;;;;;;27.08;19.92;;;;;;;14.56;49.10;95614.09;4985738;28;20034;-63
2021/09/17 09:20:31;;;;;;;28.42;18.48;;;;;;;14.53;49.51;95609.97;4990383;28;20106;-64
2021/09/17 09:23:19;;;;;;;28.77;18.30;;;;;;;14.46;49.38;95614.50;4986678;28;20571;-63
2021/09/17 09:25:54;;;;;;;23.13;16.10;;;;;;;14.18;48.61;95612.78;4990969;28;20066;-64
2021/09/17 09:28:36;;;;;;;24.95;16.10;;;;;;;14.17;48.59;95611.09;4991095;28;20384;-63
2021/09/17 09:31:07;;;;;;;22.67;16.38;;;;;;;14.26;50.70;95614.44;4991061;28;20526;-64
2021/09/17 09:33:34;;;;;;;24.95;16.45;;;;;;;14.29;49.37;95611.38;4991009;28;20149;-64
2021/09/17 09:36:12;;;;;;;28.45;17.63;;;;;;;14.72;48.08;95600.31;4990402;28;20380;-64
2021/09/17 09:38:40;;;;;;;;;;;;;;;15.46;46.97;95602.16;4991068;28;20069;-62
2021/09/17 09:41:07;;;;;;;23.23;15.73;;;;;;;14.87;48.21;95606.53;4990490;28;19960;-62
2021/09/17 09:43:34;;;;;;;25.33;15.45;;;;;;;15.35;47.47;95594.75;4990706;28;20455;-63
2021/09/17 09:46:27;;;;;;;24.63;15.30;;;;;;;15.15;47.10;95600.97;4990725;28;20154;-64
2021/09/17 09:48:59;;;;;;;22.30;14.68;;;;;;;15.36;46.59;95599.91;4989283;28;20142;-64
2021/09/17 09:51:28;;;;;;;25.30;14.35;;;;;;;15.38;46.54;95594.34;4990247;28;20451;-63
2021/09/17 09:53:54;;;;;;;27.50;14.77;;;;;;;15.83;46.69;95593.63;4990276;28;20092;-67
2021/09/17 09:56:20;;;;;;;20.52;14.50;;;;;;;15.90;45.61;95598.16;4990298;28;20111;-64
2021/09/17 09:58:48;;;;;;;21.40;14.57;;;;;;;15.71;46.38;95606.84;4988680;28;20437;-64
2021/09/17 10:01:14;;;;;;;25.15;14.82;;;;;;;16.31;46.87;95601.47;4989759;28;20563;-64
2021/09/17 10:03:40;;;;;;;29.02;15.32;;;;;;;16.03;45.05;95594.56;4990112;28;20153;-64
2021/09/17 10:06:05;;;;;;;20.55;13.00;;;;;;;15.96;45.45;95594.59;4990748;28;20457;-64
2021/09/17 10:08:31;;;;;;;21.25;13.25;;;;;;;16.43;44.30;95594.41;4990065;28;20072;-64
2021/09/17 10:10:58;;;;;;;22.48;13.38;;;;;;;17.10;43.80;95593.06;4989855;28;20041;-64
2021/09/17 10:13:23;;;;;;;21.03;12.30;;;;;;;17.02;42.29;95588.78;4988941;28;20403;-65
2021/09/17 10:15:49;;;;;;;22.63;11.35;;;;;;;17.26;41.48;95591.72;4989751;28;20145;-62
2021/09/17 10:18:16;;;;;;;22.20;12.15;;;;;;;17.59;40.64;95591.59;4988395;28;20045;-65
2021/09/17 10:20:43;;;;;;;24.98;12.38;;;;;;;17.25;41.95;95592.75;4990048;28;20213;-62
2021/09/17 10:23:29;;;;;;;24.55;13.52;;;;;;;17.92;41.00;95590.44;4989821;28;20125;-64
2021/09/17 10:26:00;;;;;;;21.83;11.05;;;;;;;18.61;39.10;95586.63;4989101;28;20082;-64
2021/09/17 10:28:26;;;;;;;17.13;12.13;;;;;;;19.48;37.11;95586.28;4989834;28;20046;-64
2021/09/17 10:30:51;;;;;;;18.73;12.07;;;;;;;19.65;36.50;95580.94;4989059;28;20049;-64
2021/09/17 10:33:22;;;;;;;17.80;11.50;;;;;;;19.13;38.16;95584.34;4992766;28;20073;-64
2021/09/17 10:35:48;;;;;;;16.38;10.60;;;;;;;19.20;37.63;95587.75;4993806;28;20038;-64
2021/09/17 10:38:26;;;;;;;17.50;9.98;;;;;;;19.63;37.16;95582.25;4994165;28;20083;-64
2021/09/17 10:41:04;;;;;;;16.23;9.75;;;;;;;20.16;35.41;95577.66;4992278;28;20046;-62
2021/09/17 10:43:38;;;;;;;13.75;10.32;;;;;;;20.65;33.73;95583.72;4993323;28;20106;-63
2021/09/17 10:46:10;;;;;;;12.68;9.32;;;;;;;20.71;33.21;95585.44;4994140;28;20079;-62
2021/09/17 10:48:39;;;;;;;10.75;8.65;;;;;;;19.83;34.93;95593.50;4992062;28;20042;-62
2021/09/17 10:51:04;;;;;;;12.00;8.80;;;;;;;20.17;34.50;95578.50;4993598;28;20061;-62
2021/09/17 10:53:39;;;;;;;12.05;8.80;;;;;;;19.74;37.12;95583.31;4993858;28;20442;-62
2021/09/17 10:56:08;;;;;;;11.70;8.68;;;;;;;19.46;35.97;95577.56;4987745;28;20038;-62
2021/09/17 10:58:33;;;;;;;12.85;7.15;;;;;;;19.29;35.72;95591.78;4993658;28;20058;-64
2021/09/17 11:01:03;;;;;;;10.13;7.82;;;;;;;18.96;36.38;95585.03;4993352;28;20049;-63
2021/09/17 11:03:41;;;;;;;12.48;7.88;;;;;;;18.84;38.06;95581.50;4991465;28;20046;-63
2021/09/17 11:06:18;;;;;;;14.50;7.82;;;;;;;19.21;35.49;95586.72;4993378;28;20088;-63
2021/09/17 11:08:44;;;;;;;;;;;;;;;19.06;34.31;95581.75;4985731;28;20046;-64
2021/09/17 11:11:29;;;;;;;13.48;9.10;;;;;;;18.90;37.00;95583.28;4992661;28;19952;-67
2021/09/17 11:14:08;;;;;;;13.20;8.13;;;;;;;18.98;36.34;95577.56;4993315;28;20050;-62
2021/09/17 11:16:34;;;;;;;11.32;8.73;;;;;;;18.56;38.51;95581.88;4987207;28;20658;-63
2021/09/17 11:19:01;;;;;;;12.00;8.07;;;;;;;18.46;39.38;95587.00;4986277;28;20026;-63
2021/09/17 11:21:36;;;;;;;13.33;9.20;;;;;;;18.30;38.55;95583.94;4983839;28;20069;-62
2021/09/17 11:24:02;;;;;;;16.35;8.48;;;;;;;18.46;39.06;95581.63;4992964;28;20044;-62
2021/09/17 11:26:31;;;;;;;13.48;9.52;;;;;;;18.93;37.96;95590.91;4981208;28;20027;-63